Portada
METAR-TAF:

METAR-TAF

Aeropuertos :

Aeropuerto Internacional Mitiga

Trípoli, Libia

latitud: 32-54N, longitud: 13-17E, altitud: 11 m

METAR: falta

Hora: 18:41 (16:41 UTC)

Pronóstico

El informe se hizo hace 5 horas y 41 minutos, a las 11:00 UTC
Pronóstico válido del 11 a las 12 UTC al 12 a las 12 UTC
Viento 15 kt del norte-noroeste con ráfagas de 25 kt
Visibilidad: 5000 m
Escasas nubes a una altura de 2000 ft
Nubes dispersas a una altura de 2200 ft
Nubes dispersas a una altura de 7000 ft
Cielo nuboso a una altura de 2000 ft
chaparrones de lluvia
Probabilidad 30% :
Temporalmente
del 11 a las 12 UTC al 11 a las 18 UTC
Viento 12 kt del oeste con ráfagas de 22 kt
Visibilidad: 3000 m
Escasas nubes a una altura de 1800 ft
Cielo cubierto a una altura de 2000 ft
tormenta, lluvia

TAF: HLLM 111100Z 1112/1212 33015G25KT 9999 FEW020 TCU SCT022 SCT070 TEMPO1112/1124 5000 SHRA BKN020 PROB30 TEMPO 1112/1118 3000 TSRA FEW018 CB OVC020 BECMG1200/1202 27012G22KT

Observaciones y pronósticos meteorológicos de más de 4000 aeropuertos (mensajes METAR y TAF).

Los puntos amarillos y rojos representan las estaciones disponibles.

Ponga el ratón en el punto deseado para ver el nombre de la estación.

Haga clic para ver las observaciones y los pronósticos meteorológicos.

Para cambiar el mapa : haga clic en los botones verdes con una cruz de color negro para hacer un zoom, en el botón verde con un guión para alejar o en las flechas verdes para mapas adyacentes.


METAR-TAF: